KAL738 RJBB-RKSI
Flight info
| Callsign | KAL738 |
|---|---|
| Flight time | N/A |
| Altitude | 32000 |
| Route | SOUJA Y324 STAGE Y38 SAPRA Y685 GUKDO GUKDO2H |
| Aircraft | B738/M-SDE2E3FGHIRWXY/LB1 |
Departure
| Time | 2026-05-05 07:08 |
|---|---|
| Airport | Kansai International Airport (RJBB) |
Arrival
| Time | N/A |
|---|---|
| Airport | Incheon International Airport (RKSI) |
| Time | Latitude | Longitude | Altitude | Speed | Heading |
|---|---|---|---|---|---|
| 2026-05-05 06:45 | 34.43548 | 135.24777 | 18 ft | 0 kts | 321° |
| 2026-05-05 07:02 | 34.43539 | 135.24785 | 18 ft | 3 kts | 321° |
| 2026-05-05 07:02 | 34.43523 | 135.24801 | 18 ft | 3 kts | 321° |
| 2026-05-05 07:02 | 34.43506 | 135.24818 | 19 ft | 4 kts | 321° |
| 2026-05-05 07:02 | 34.43487 | 135.24836 | 18 ft | 4 kts | 321° |
| 2026-05-05 07:03 | 34.43465 | 135.24847 | 18 ft | 4 kts | 8° |
| 2026-05-05 07:03 | 34.43457 | 135.24844 | 18 ft | 0 kts | 21° |
| 2026-05-05 07:04 | 34.43464 | 135.24848 | 18 ft | 3 kts | 29° |
| 2026-05-05 07:04 | 34.43500 | 135.24888 | 19 ft | 12 kts | 49° |
| 2026-05-05 07:05 | 34.43564 | 135.24989 | 18 ft | 17 kts | 60° |
| 2026-05-05 07:05 | 34.43573 | 135.25131 | 18 ft | 17 kts | 76° |
| 2026-05-05 07:05 | 34.43640 | 135.25242 | 19 ft | 16 kts | 51° |
| 2026-05-05 07:05 | 34.43709 | 135.25347 | 18 ft | 16 kts | 51° |
| 2026-05-05 07:06 | 34.43776 | 135.25445 | 18 ft | 15 kts | 51° |
| 2026-05-05 07:06 | 34.43836 | 135.25543 | 18 ft | 14 kts | 66° |
| 2026-05-05 07:06 | 34.43839 | 135.25660 | 20 ft | 14 kts | 96° |
| 2026-05-05 07:06 | 34.43813 | 135.25765 | 18 ft | 13 kts | 133° |
| 2026-05-05 07:07 | 34.43747 | 135.25838 | 22 ft | 13 kts | 144° |
| 2026-05-05 07:07 | 34.43674 | 135.25813 | 20 ft | 13 kts | 230° |
| 2026-05-05 07:07 | 34.43574 | 135.25664 | 19 ft | 55 kts | 231° |
| 2026-05-05 07:07 | 34.43147 | 135.25027 | 15 ft | 136 kts | 231° |
| 2026-05-05 07:08 | 34.42450 | 135.23973 | 414 ft | 171 kts | 233° |
| 2026-05-05 07:08 | 34.41698 | 135.22819 | 1430 ft | 176 kts | 234° |
| 2026-05-05 07:08 | 34.40969 | 135.21515 | 2149 ft | 198 kts | 234° |
| 2026-05-05 07:08 | 34.40168 | 135.20100 | 2836 ft | 207 kts | 234° |
| 2026-05-05 07:09 | 34.39357 | 135.18642 | 3556 ft | 215 kts | 234° |
| 2026-05-05 07:09 | 34.38511 | 135.17116 | 4372 ft | 222 kts | 233° |
| 2026-05-05 07:09 | 34.37646 | 135.15555 | 5331 ft | 223 kts | 233° |
| 2026-05-05 07:09 | 34.36771 | 135.13979 | 6276 ft | 227 kts | 234° |
| 2026-05-05 07:10 | 34.35896 | 135.12378 | 7172 ft | 229 kts | 239° |
| 2026-05-05 07:10 | 34.35501 | 135.10506 | 8014 ft | 236 kts | 272° |
| 2026-05-05 07:10 | 34.36010 | 135.08617 | 8866 ft | 242 kts | 304° |
| 2026-05-05 07:10 | 34.37257 | 135.07262 | 9689 ft | 248 kts | 329° |
| 2026-05-05 07:11 | 34.38805 | 135.06336 | 10580 ft | 249 kts | 335° |
| 2026-05-05 07:11 | 34.40425 | 135.05543 | 11342 ft | 255 kts | 346° |
| 2026-05-05 07:11 | 34.42219 | 135.05595 | 11897 ft | 270 kts | 15° |
| 2026-05-05 07:11 | 34.44114 | 135.06295 | 12141 ft | 299 kts | 18° |
| 2026-05-05 07:12 | 34.46193 | 135.07094 | 12343 ft | 327 kts | 18° |
| 2026-05-05 07:12 | 34.48461 | 135.07945 | 12542 ft | 354 kts | 17° |
| 2026-05-05 07:12 | 34.50977 | 135.08340 | 12792 ft | 376 kts | 353° |
| 2026-05-05 07:12 | 34.53532 | 135.07729 | 13440 ft | 383 kts | 346° |
| 2026-05-05 07:13 | 34.56135 | 135.06922 | 14141 ft | 388 kts | 339° |
| 2026-05-05 07:13 | 34.58446 | 135.05270 | 14905 ft | 385 kts | 315° |
| 2026-05-05 07:13 | 34.60148 | 135.02797 | 15837 ft | 379 kts | 298° |
| 2026-05-05 07:13 | 34.61152 | 134.99862 | 16691 ft | 376 kts | 281° |
| 2026-05-05 07:14 | 34.61461 | 134.96712 | 17479 ft | 375 kts | 272° |
| 2026-05-05 07:14 | 34.61611 | 134.93530 | 18233 ft | 378 kts | 271° |
| 2026-05-05 07:14 | 34.61761 | 134.90370 | 18901 ft | 381 kts | 272° |
| 2026-05-05 07:14 | 34.61938 | 134.87147 | 19617 ft | 381 kts | 272° |
| 2026-05-05 07:15 | 34.62137 | 134.83936 | 20366 ft | 381 kts | 273° |
| 2026-05-05 07:15 | 34.62345 | 134.80733 | 21071 ft | 381 kts | 273° |
| 2026-05-05 07:15 | 34.62541 | 134.77515 | 21760 ft | 381 kts | 271° |
| 2026-05-05 07:15 | 34.62494 | 134.74300 | 22410 ft | 381 kts | 265° |
| 2026-05-05 07:16 | 34.62275 | 134.71092 | 23033 ft | 383 kts | 263° |
| 2026-05-05 07:16 | 34.62004 | 134.67870 | 23651 ft | 384 kts | 263° |
| 2026-05-05 07:16 | 34.61731 | 134.64637 | 24178 ft | 385 kts | 263° |
| 2026-05-05 07:16 | 34.61472 | 134.61411 | 24751 ft | 384 kts | 263° |
| 2026-05-05 07:17 | 34.61227 | 134.58184 | 25307 ft | 383 kts | 263° |
| 2026-05-05 07:17 | 34.60995 | 134.54999 | 25830 ft | 383 kts | 263° |
| 2026-05-05 07:17 | 34.60766 | 134.51769 | 26343 ft | 383 kts | 263° |
| 2026-05-05 07:17 | 34.60540 | 134.48543 | 26835 ft | 384 kts | 263° |
| 2026-05-05 07:18 | 34.60316 | 134.45323 | 27293 ft | 384 kts | 263° |
| 2026-05-05 07:18 | 34.60090 | 134.42093 | 27819 ft | 383 kts | 263° |
| 2026-05-05 07:18 | 34.59864 | 134.38872 | 28283 ft | 383 kts | 263° |
| 2026-05-05 07:18 | 34.59637 | 134.35642 | 28752 ft | 383 kts | 263° |
| 2026-05-05 07:19 | 34.59409 | 134.32427 | 29195 ft | 383 kts | 263° |
| 2026-05-05 07:19 | 34.59183 | 134.29234 | 29695 ft | 381 kts | 262° |
| 2026-05-05 07:19 | 34.58956 | 134.26052 | 30338 ft | 376 kts | 262° |
| 2026-05-05 07:19 | 34.58734 | 134.22927 | 31010 ft | 368 kts | 262° |
| 2026-05-05 07:20 | 34.58514 | 134.19850 | 31570 ft | 364 kts | 262° |
| 2026-05-05 07:20 | 34.58293 | 134.16794 | 31906 ft | 365 kts | 262° |
| 2026-05-05 07:20 | 34.58070 | 134.13723 | 32161 ft | 366 kts | 261° |
| 2026-05-05 07:21 | 34.57616 | 134.07495 | 32157 ft | 371 kts | 261° |
| 2026-05-05 07:21 | 34.57832 | 134.01250 | 32159 ft | 374 kts | 275° |
| 2026-05-05 07:22 | 34.58965 | 133.95082 | 32152 ft | 375 kts | 275° |
| 2026-05-05 07:22 | 34.60090 | 133.88895 | 32138 ft | 375 kts | 275° |
| 2026-05-05 07:23 | 34.61174 | 133.82747 | 32164 ft | 375 kts | 275° |
| 2026-05-05 07:23 | 34.62379 | 133.76557 | 32123 ft | 385 kts | 284° |
| 2026-05-05 07:23 | 34.63641 | 133.73638 | 32152 ft | 396 kts | 292° |
| 2026-05-05 07:24 | 34.65375 | 133.70981 | 32137 ft | 408 kts | 303° |
| 2026-05-05 07:24 | 34.69622 | 133.66313 | 32149 ft | 414 kts | 307° |
| 2026-05-05 07:25 | 34.73256 | 133.62478 | 32143 ft | 415 kts | 307° |
| 2026-05-05 07:25 | 34.78313 | 133.57081 | 32136 ft | 415 kts | 307° |
| 2026-05-05 07:26 | 34.82645 | 133.52395 | 32144 ft | 417 kts | 307° |
| 2026-05-05 07:26 | 34.86979 | 133.47682 | 32161 ft | 418 kts | 307° |
| 2026-05-05 07:27 | 34.90592 | 133.43745 | 32144 ft | 420 kts | 307° |
| 2026-05-05 07:27 | 34.95666 | 133.38209 | 32150 ft | 422 kts | 308° |
| 2026-05-05 07:28 | 34.99311 | 133.34227 | 32147 ft | 424 kts | 308° |
| 2026-05-05 07:28 | 35.04454 | 133.28602 | 32140 ft | 424 kts | 308° |
| 2026-05-05 07:29 | 35.08107 | 133.24602 | 32141 ft | 424 kts | 308° |
| 2026-05-05 07:29 | 35.12502 | 133.19779 | 32135 ft | 426 kts | 308° |
| 2026-05-05 07:30 | 35.16915 | 133.14929 | 32126 ft | 426 kts | 308° |
| 2026-05-05 07:30 | 35.23510 | 133.07669 | 32128 ft | 427 kts | 309° |
| 2026-05-05 07:31 | 35.27923 | 133.02801 | 32110 ft | 427 kts | 309° |
| 2026-05-05 07:31 | 35.32340 | 132.97921 | 32109 ft | 428 kts | 309° |
| 2026-05-05 07:32 | 35.36762 | 132.93029 | 32103 ft | 428 kts | 309° |
| 2026-05-05 07:32 | 35.41187 | 132.88125 | 32100 ft | 428 kts | 309° |
| 2026-05-05 07:33 | 35.45580 | 132.83250 | 32105 ft | 428 kts | 309° |
| 2026-05-05 07:33 | 35.50008 | 132.78329 | 32113 ft | 428 kts | 309° |
| 2026-05-05 07:34 | 35.54429 | 132.73398 | 32113 ft | 428 kts | 308° |
| 2026-05-05 07:34 | 35.56361 | 132.70695 | 32113 ft | 415 kts | 296° |
| 2026-05-05 07:34 | 35.57744 | 132.67683 | 32126 ft | 406 kts | 288° |
| 2026-05-05 07:35 | 35.59259 | 132.61139 | 32154 ft | 395 kts | 274° |
| 2026-05-05 07:35 | 35.60097 | 132.54435 | 32141 ft | 398 kts | 274° |
| 2026-05-05 07:36 | 35.60942 | 132.47686 | 32132 ft | 401 kts | 274° |
| 2026-05-05 07:36 | 35.61810 | 132.40897 | 32129 ft | 403 kts | 275° |
| 2026-05-05 07:37 | 35.62673 | 132.34191 | 32128 ft | 405 kts | 275° |
| 2026-05-05 07:37 | 35.63554 | 132.27339 | 32125 ft | 407 kts | 275° |
| 2026-05-05 07:38 | 35.64438 | 132.20441 | 32128 ft | 408 kts | 275° |
| 2026-05-05 07:38 | 35.65318 | 132.13540 | 32134 ft | 409 kts | 275° |
| 2026-05-05 07:39 | 35.66192 | 132.06657 | 32109 ft | 410 kts | 275° |
| 2026-05-05 07:39 | 35.67066 | 131.99733 | 32119 ft | 409 kts | 275° |
| 2026-05-05 07:40 | 35.67937 | 131.92806 | 32120 ft | 409 kts | 275° |
| 2026-05-05 07:40 | 35.68801 | 131.85897 | 32120 ft | 408 kts | 275° |
| 2026-05-05 07:41 | 35.69653 | 131.79051 | 32122 ft | 407 kts | 275° |
| 2026-05-05 07:41 | 35.70505 | 131.72162 | 32124 ft | 407 kts | 275° |
| 2026-05-05 07:42 | 35.71356 | 131.65262 | 32120 ft | 407 kts | 275° |
| 2026-05-05 07:42 | 35.72202 | 131.58358 | 32118 ft | 408 kts | 275° |
| 2026-05-05 07:43 | 35.73046 | 131.51440 | 32122 ft | 409 kts | 275° |
| 2026-05-05 07:43 | 35.73884 | 131.44543 | 32112 ft | 410 kts | 275° |
| 2026-05-05 07:44 | 35.74725 | 131.37585 | 32118 ft | 411 kts | 275° |
| 2026-05-05 07:44 | 35.75563 | 131.30616 | 32121 ft | 412 kts | 275° |
| 2026-05-05 07:45 | 35.76395 | 131.23662 | 32115 ft | 412 kts | 275° |
| 2026-05-05 07:45 | 35.77230 | 131.16648 | 32112 ft | 413 kts | 275° |
| 2026-05-05 07:46 | 35.78059 | 131.09649 | 32118 ft | 414 kts | 275° |
| 2026-05-05 07:46 | 35.78881 | 131.02670 | 32115 ft | 414 kts | 275° |
| 2026-05-05 07:47 | 35.79705 | 130.95643 | 32109 ft | 414 kts | 275° |
| 2026-05-05 07:47 | 35.80526 | 130.88609 | 32115 ft | 415 kts | 275° |
| 2026-05-05 07:48 | 35.81344 | 130.81557 | 32109 ft | 415 kts | 275° |
| 2026-05-05 07:48 | 35.82158 | 130.74514 | 32106 ft | 415 kts | 275° |
| 2026-05-05 07:49 | 35.83003 | 130.67477 | 32109 ft | 415 kts | 275° |
| 2026-05-05 07:49 | 35.83911 | 130.60443 | 32108 ft | 415 kts | 275° |
| 2026-05-05 07:50 | 35.84807 | 130.53470 | 32103 ft | 414 kts | 275° |
| 2026-05-05 07:50 | 35.85698 | 130.46448 | 32119 ft | 414 kts | 275° |
| 2026-05-05 07:51 | 35.86581 | 130.39427 | 32101 ft | 414 kts | 275° |
| 2026-05-05 07:51 | 35.87455 | 130.32436 | 32101 ft | 415 kts | 275° |
| 2026-05-05 07:52 | 35.88331 | 130.25396 | 32096 ft | 415 kts | 275° |
| 2026-05-05 07:52 | 35.89204 | 130.18339 | 32092 ft | 416 kts | 275° |
| 2026-05-05 07:53 | 35.90076 | 130.11266 | 32074 ft | 417 kts | 275° |
| 2026-05-05 07:53 | 35.90937 | 130.04245 | 32088 ft | 417 kts | 275° |
| 2026-05-05 07:54 | 35.91800 | 129.97171 | 32090 ft | 417 kts | 275° |
| 2026-05-05 07:54 | 35.92661 | 129.90080 | 32081 ft | 418 kts | 275° |
| 2026-05-05 07:55 | 35.93518 | 129.82987 | 32079 ft | 418 kts | 275° |
| 2026-05-05 07:55 | 35.94365 | 129.75894 | 32073 ft | 418 kts | 275° |
| 2026-05-05 07:56 | 35.95206 | 129.68779 | 32070 ft | 418 kts | 275° |
| 2026-05-05 07:56 | 35.96038 | 129.61715 | 32059 ft | 419 kts | 275° |
| 2026-05-05 07:57 | 35.96874 | 129.54593 | 32064 ft | 419 kts | 275° |
| 2026-05-05 07:57 | 35.98304 | 129.47587 | 32058 ft | 425 kts | 288° |
| 2026-05-05 07:58 | 36.01232 | 129.41163 | 32057 ft | 433 kts | 301° |
| 2026-05-05 07:58 | 36.04751 | 129.35153 | 32056 ft | 434 kts | 301° |
| 2026-05-05 07:59 | 36.08294 | 129.29106 | 32036 ft | 434 kts | 301° |
| 2026-05-05 07:59 | 36.11816 | 129.23016 | 32040 ft | 434 kts | 301° |
| 2026-05-05 08:00 | 36.15314 | 129.16922 | 32035 ft | 434 kts | 301° |
| 2026-05-05 08:00 | 36.18790 | 129.10851 | 32045 ft | 434 kts | 301° |
| 2026-05-05 08:01 | 36.22285 | 129.04739 | 32037 ft | 434 kts | 301° |
| 2026-05-05 08:01 | 36.25774 | 128.98628 | 32038 ft | 434 kts | 301° |
| 2026-05-05 08:02 | 36.29240 | 128.92545 | 32020 ft | 434 kts | 301° |
| 2026-05-05 08:02 | 36.32721 | 128.86427 | 32037 ft | 434 kts | 301° |
| 2026-05-05 08:03 | 36.36200 | 128.80309 | 32022 ft | 434 kts | 301° |
| 2026-05-05 08:03 | 36.39687 | 128.74174 | 32026 ft | 435 kts | 301° |
| 2026-05-05 08:04 | 36.43155 | 128.68063 | 32031 ft | 435 kts | 301° |
| 2026-05-05 08:04 | 36.46637 | 128.61913 | 32027 ft | 435 kts | 301° |
| 2026-05-05 08:05 | 36.50128 | 128.55736 | 32016 ft | 435 kts | 301° |